createdAt,value
2019-02-06T00:01:19.305Z,21.17
2019-02-06T00:03:20.932Z,21.16
2019-02-06T00:05:22.565Z,21.17
2019-02-06T00:07:24.297Z,21.17
2019-02-06T00:09:25.841Z,21.17
2019-02-06T00:11:27.463Z,21.19
2019-02-06T00:13:29.075Z,21.16
2019-02-06T00:15:30.717Z,21.19
2019-02-06T00:17:32.357Z,21.18
2019-02-06T00:19:33.957Z,21.18
2019-02-06T00:21:35.706Z,21.20
2019-02-06T00:23:37.364Z,21.24
2019-02-06T00:25:38.961Z,21.24
2019-02-06T00:27:40.561Z,21.26
2019-02-06T00:29:42.191Z,21.25
2019-02-06T00:31:43.805Z,21.27
2019-02-06T00:33:45.410Z,21.26
2019-02-06T00:35:47.041Z,21.25
2019-02-06T00:37:48.651Z,21.26
2019-02-06T00:39:50.285Z,21.25
2019-02-06T00:41:51.950Z,21.24
2019-02-06T00:43:53.564Z,21.25
2019-02-06T00:45:55.180Z,21.22
2019-02-06T00:47:56.801Z,21.22
2019-02-06T00:49:58.405Z,21.20
2019-02-06T00:52:00.031Z,21.18
2019-02-06T00:54:01.656Z,21.18
2019-02-06T00:56:03.289Z,21.20
2019-02-06T00:58:04.885Z,21.19
2019-02-06T01:00:06.554Z,21.19
2019-02-06T01:02:08.206Z,21.17
2019-02-06T01:04:09.843Z,21.12
2019-02-06T01:06:11.451Z,21.13
2019-02-06T01:08:13.054Z,21.15
2019-02-06T01:10:14.714Z,21.14
2019-02-06T01:12:16.328Z,21.14
2019-02-06T01:14:17.986Z,21.11
2019-02-06T01:16:20.243Z,21.09
2019-02-06T01:18:21.828Z,21.10
2019-02-06T01:20:23.485Z,21.10
2019-02-06T01:22:25.082Z,21.14
2019-02-06T01:24:26.769Z,21.11
2019-02-06T01:26:28.379Z,21.09
2019-02-06T01:28:29.982Z,21.07
2019-02-06T01:30:32.445Z,21.04
2019-02-06T01:32:34.128Z,21.08
2019-02-06T01:34:35.738Z,21.09
2019-02-06T01:36:37.347Z,21.06
2019-02-06T01:38:38.987Z,21.03
2019-02-06T01:40:40.590Z,21.02
2019-02-06T01:42:42.208Z,21.02
2019-02-06T01:44:43.844Z,21.02
2019-02-06T01:46:45.468Z,21.01
2019-02-06T01:48:47.102Z,20.99
2019-02-06T01:50:48.708Z,21.02
2019-02-06T01:52:50.316Z,21.04
2019-02-06T01:54:51.923Z,21.05
2019-02-06T01:56:53.544Z,20.84
2019-02-06T01:58:55.188Z,21.05
2019-02-06T02:00:56.812Z,21.06
2019-02-06T02:02:58.436Z,21.04
2019-02-06T02:05:00.047Z,21.03
2019-02-06T02:07:01.668Z,21.03
2019-02-06T02:09:03.319Z,21.03
2019-02-06T02:11:04.926Z,21.02
2019-02-06T02:13:06.548Z,21.02
2019-02-06T02:15:08.241Z,21.01
2019-02-06T02:17:09.844Z,20.99
2019-02-06T02:19:11.449Z,20.99
2019-02-06T02:21:13.049Z,20.96
2019-02-06T02:23:14.702Z,20.96
2019-02-06T02:25:16.306Z,20.92
2019-02-06T02:27:17.905Z,20.89
2019-02-06T02:29:19.549Z,20.85
2019-02-06T02:31:21.150Z,20.81
2019-02-06T02:33:22.768Z,20.77
2019-02-06T02:35:24.379Z,20.72
2019-02-06T02:37:26.024Z,20.69
2019-02-06T02:39:27.625Z,20.68
2019-02-06T02:41:29.264Z,20.68
2019-02-06T02:43:30.872Z,20.72
2019-02-06T02:45:32.481Z,20.74
2019-02-06T02:47:34.113Z,20.76
2019-02-06T02:49:35.805Z,20.79
2019-02-06T02:51:37.424Z,20.93
2019-02-06T02:53:39.026Z,21.07
2019-02-06T02:55:40.657Z,21.10
2019-02-06T02:57:42.327Z,20.98
2019-02-06T02:59:43.947Z,21.07
2019-02-06T03:01:45.564Z,21.06
2019-02-06T03:03:47.991Z,21.07
2019-02-06T03:05:49.613Z,21.09
2019-02-06T03:07:51.225Z,21.18
2019-02-06T03:09:52.845Z,21.21
2019-02-06T03:11:54.473Z,21.18
2019-02-06T03:13:56.084Z,21.22
2019-02-06T03:15:57.705Z,21.23
2019-02-06T03:17:59.337Z,21.19
2019-02-06T03:20:00.972Z,21.17
2019-02-06T03:22:02.632Z,21.18
2019-02-06T03:24:04.226Z,21.20
2019-02-06T03:26:05.836Z,21.19
2019-02-06T03:28:07.433Z,21.18
2019-02-06T03:30:09.118Z,21.18
2019-02-06T03:32:10.785Z,21.22
2019-02-06T03:34:12.394Z,21.21
2019-02-06T03:36:14.003Z,21.26
2019-02-06T03:38:15.626Z,21.24
2019-02-06T03:40:17.237Z,21.31
2019-02-06T03:42:18.845Z,21.15
2019-02-06T03:44:21.059Z,20.71
2019-02-06T03:46:22.696Z,20.67
2019-02-06T03:48:24.299Z,20.84
2019-02-06T03:50:25.910Z,20.94
2019-02-06T03:52:27.561Z,20.99
2019-02-06T03:54:29.184Z,21.03
2019-02-06T03:56:30.787Z,21.05
2019-02-06T03:58:32.376Z,21.05
2019-02-06T04:00:33.977Z,21.04
2019-02-06T04:02:35.629Z,21.08
2019-02-06T04:04:37.239Z,21.08
2019-02-06T04:06:38.848Z,21.06
2019-02-06T04:08:40.467Z,21.04
2019-02-06T04:10:42.101Z,21.04
2019-02-06T04:12:43.715Z,21.04
2019-02-06T04:14:45.380Z,21.04
2019-02-06T04:16:46.994Z,21.03
2019-02-06T04:18:48.603Z,21.02
2019-02-06T04:20:50.259Z,21.06
2019-02-06T04:22:51.927Z,21.09
2019-02-06T04:24:53.528Z,21.09
2019-02-06T04:26:55.125Z,21.07
2019-02-06T04:28:56.733Z,21.04
2019-02-06T04:30:58.347Z,21.03
2019-02-06T04:32:59.993Z,21.02
2019-02-06T04:35:01.621Z,21.01
2019-02-06T04:37:06.811Z,21.06
2019-02-06T04:39:04.888Z,21.10
2019-02-06T04:41:06.519Z,21.08
2019-02-06T04:43:08.129Z,21.07
2019-02-06T04:45:09.744Z,21.07
2019-02-06T04:47:11.345Z,21.08
2019-02-06T04:49:12.986Z,21.05
2019-02-06T04:51:14.604Z,21.06
2019-02-06T04:53:16.211Z,21.00
2019-02-06T04:55:17.931Z,20.98
2019-02-06T04:57:19.554Z,20.96
2019-02-06T04:59:21.145Z,20.94
2019-02-06T05:01:22.765Z,20.93
2019-02-06T05:03:25.907Z,20.93
2019-02-06T05:05:26.038Z,20.91
2019-02-06T05:07:27.697Z,20.89
2019-02-06T05:09:29.299Z,20.87
2019-02-06T05:11:30.916Z,20.81
2019-02-06T05:13:32.549Z,20.77
2019-02-06T05:15:34.212Z,20.69
2019-02-06T05:17:35.810Z,20.65
2019-02-06T05:19:37.420Z,20.59
2019-02-06T05:21:39.022Z,20.55
2019-02-06T05:23:40.618Z,20.53
2019-02-06T05:25:42.237Z,20.53
2019-02-06T05:27:43.841Z,20.56
2019-02-06T05:29:45.506Z,20.57
2019-02-06T05:31:47.093Z,20.57
2019-02-06T05:33:48.703Z,20.59
2019-02-06T05:35:50.334Z,20.64
2019-02-06T05:37:51.938Z,20.68
2019-02-06T05:39:53.539Z,20.72
2019-02-06T05:41:55.147Z,20.74
2019-02-06T05:43:56.754Z,20.77
2019-02-06T05:45:58.388Z,20.79
2019-02-06T05:48:00.038Z,20.82
2019-02-06T05:50:01.644Z,20.85
2019-02-06T05:52:03.251Z,20.85
2019-02-06T05:54:04.858Z,20.85
2019-02-06T05:56:06.521Z,20.86
2019-02-06T05:58:08.126Z,20.88
2019-02-06T06:00:09.768Z,20.87
2019-02-06T06:02:11.377Z,20.87
2019-02-06T06:04:13.033Z,20.88
2019-02-06T06:06:14.670Z,20.87
2019-02-06T06:08:16.283Z,20.88
2019-02-06T06:10:17.897Z,20.89
2019-02-06T06:12:19.605Z,20.89
2019-02-06T06:14:21.202Z,20.89
2019-02-06T06:16:22.801Z,20.89
2019-02-06T06:18:24.416Z,20.89
2019-02-06T06:20:26.073Z,20.90
2019-02-06T06:22:27.688Z,20.92
2019-02-06T06:24:29.318Z,20.96
2019-02-06T06:26:30.917Z,20.96
2019-02-06T06:28:32.584Z,20.98
2019-02-06T06:30:34.234Z,21.01
2019-02-06T06:32:35.830Z,21.03
2019-02-06T06:34:37.429Z,21.05
2019-02-06T06:36:39.041Z,21.07
2019-02-06T06:38:40.770Z,20.62
2019-02-06T06:40:42.333Z,20.64
2019-02-06T06:42:43.938Z,20.78
2019-02-06T06:44:45.573Z,20.88
2019-02-06T06:46:47.193Z,20.88
2019-02-06T06:48:48.794Z,20.91
2019-02-06T06:50:50.413Z,20.94
2019-02-06T06:52:52.018Z,21.03
2019-02-06T06:54:53.626Z,21.05
2019-02-06T06:56:55.250Z,21.02
2019-02-06T06:58:56.854Z,21.07
2019-02-06T07:00:58.462Z,21.07
2019-02-06T07:03:00.130Z,21.09
2019-02-06T07:05:01.740Z,21.05
2019-02-06T07:07:03.383Z,21.06
2019-02-06T07:09:05.004Z,21.08
2019-02-06T07:11:06.666Z,21.06
2019-02-06T07:13:08.306Z,21.05
2019-02-06T07:15:09.892Z,21.06
2019-02-06T07:17:11.502Z,21.04
2019-02-06T07:19:13.120Z,21.02
2019-02-06T07:21:14.745Z,21.00
2019-02-06T07:23:16.368Z,21.01
2019-02-06T07:25:17.977Z,20.98
2019-02-06T07:27:21.074Z,20.97
2019-02-06T07:29:21.288Z,20.98
2019-02-06T07:31:22.907Z,20.98
2019-02-06T07:33:24.539Z,20.98
2019-02-06T07:35:26.183Z,20.96
2019-02-06T07:37:27.784Z,20.96
2019-02-06T07:39:29.487Z,20.98
2019-02-06T07:41:31.108Z,21.02
2019-02-06T07:43:32.714Z,21.02
2019-02-06T07:45:34.365Z,21.01
2019-02-06T07:47:35.976Z,21.00
2019-02-06T07:49:37.615Z,20.98
2019-02-06T07:51:39.219Z,20.98
2019-02-06T07:53:40.884Z,20.98
2019-02-06T07:55:42.676Z,20.97
2019-02-06T07:57:44.304Z,21.00
2019-02-06T07:59:45.902Z,21.03
2019-02-06T08:01:47.537Z,20.85
2019-02-06T08:03:49.142Z,21.09
2019-02-06T08:05:50.756Z,21.16
2019-02-06T08:07:52.381Z,21.13
2019-02-06T08:09:54.000Z,21.11
2019-02-06T08:11:55.659Z,21.12
2019-02-06T08:13:57.270Z,21.10
2019-02-06T08:15:58.895Z,21.12
2019-02-06T08:18:00.513Z,21.11
2019-02-06T08:20:02.502Z,21.13
2019-02-06T08:22:04.143Z,21.11
2019-02-06T08:24:05.749Z,21.19
2019-02-06T08:26:07.382Z,21.24
2019-02-06T08:28:09.043Z,21.26
2019-02-06T08:30:10.668Z,21.27
2019-02-06T08:32:12.284Z,21.29
2019-02-06T08:34:13.900Z,21.30
2019-02-06T08:36:15.559Z,21.34
2019-02-06T08:38:17.172Z,21.37
2019-02-06T08:40:18.767Z,21.38
2019-02-06T08:42:20.369Z,21.37
2019-02-06T08:44:21.990Z,21.39
2019-02-06T08:46:23.608Z,21.45
2019-02-06T08:48:25.226Z,21.49
2019-02-06T08:50:26.833Z,21.43
2019-02-06T08:52:28.434Z,21.31
2019-02-06T08:54:30.024Z,21.53
2019-02-06T08:56:31.652Z,21.95
2019-02-06T08:58:33.253Z,22.19
2019-02-06T09:00:34.855Z,22.40
2019-02-06T09:02:36.461Z,22.46
2019-02-06T09:04:38.052Z,22.55
2019-02-06T09:06:39.666Z,22.41
2019-02-06T09:08:41.280Z,22.17
2019-02-06T09:10:42.881Z,21.70
2019-02-06T09:12:44.535Z,21.56
2019-02-06T09:14:46.152Z,21.46
2019-02-06T09:16:47.757Z,21.44
2019-02-06T09:18:49.410Z,21.43
2019-02-06T09:20:52.809Z,21.23
2019-02-06T09:22:52.721Z,21.44
2019-02-06T09:24:54.321Z,21.40
2019-02-06T09:26:55.970Z,21.41
2019-02-06T09:28:57.565Z,21.38
2019-02-06T09:30:59.207Z,21.35
2019-02-06T09:33:00.843Z,21.31
2019-02-06T09:35:02.467Z,21.23
2019-02-06T09:37:05.188Z,21.23
2019-02-06T09:39:11.657Z,19.55
2019-02-06T09:41:07.357Z,21.04
2019-02-06T09:43:08.968Z,22.04
2019-02-06T09:45:10.584Z,22.41
2019-02-06T09:47:12.187Z,22.42
2019-02-06T09:49:15.176Z,22.69
2019-02-06T09:51:15.477Z,22.71
2019-02-06T09:53:17.106Z,22.69
2019-02-06T09:55:18.691Z,23.02
2019-02-06T09:57:20.276Z,22.97
2019-02-06T09:59:21.882Z,23.07
2019-02-06T10:01:23.511Z,23.07
2019-02-06T10:03:25.116Z,23.26
2019-02-06T10:05:26.738Z,23.20
2019-02-06T10:07:28.375Z,23.22
2019-02-06T10:09:30.040Z,23.16
2019-02-06T10:11:31.628Z,23.19
2019-02-06T10:13:33.212Z,23.22
2019-02-06T10:15:34.818Z,22.95
2019-02-06T10:17:36.471Z,22.59
2019-02-06T10:19:38.127Z,22.50
2019-02-06T10:21:39.725Z,22.51
2019-02-06T10:23:41.328Z,22.61
2019-02-06T10:25:42.966Z,22.82
2019-02-06T10:27:44.583Z,22.73
2019-02-06T10:29:46.195Z,22.47
2019-02-06T10:31:47.833Z,21.86
2019-02-06T10:33:49.435Z,21.50
2019-02-06T10:35:52.202Z,21.34
2019-02-06T10:37:52.735Z,21.19
2019-02-06T10:39:54.360Z,21.13
2019-02-06T10:41:55.995Z,21.07
2019-02-06T10:43:57.605Z,21.05
2019-02-06T10:45:59.219Z,20.90
2019-02-06T10:48:00.816Z,20.69
2019-02-06T10:50:02.421Z,20.88
2019-02-06T10:52:04.097Z,20.86
2019-02-06T10:54:05.693Z,20.82
2019-02-06T10:56:07.326Z,20.79
2019-02-06T10:58:08.931Z,20.79
2019-02-06T11:00:10.588Z,20.80
2019-02-06T11:02:12.204Z,20.84
2019-02-06T11:04:13.810Z,20.87
2019-02-06T11:06:15.413Z,20.98
2019-02-06T11:08:17.032Z,21.04
2019-02-06T11:10:18.692Z,21.11
2019-02-06T11:12:20.284Z,21.14
2019-02-06T11:14:21.891Z,21.20
2019-02-06T11:16:23.496Z,21.25
2019-02-06T11:18:25.108Z,21.29
2019-02-06T11:20:26.719Z,21.32
2019-02-06T11:22:28.362Z,21.38
2019-02-06T11:24:29.988Z,21.44
2019-02-06T11:26:31.648Z,21.48
2019-02-06T11:28:33.268Z,21.49
2019-02-06T11:30:34.874Z,21.49
2019-02-06T11:32:36.506Z,21.49
2019-02-06T11:34:38.153Z,21.48
2019-02-06T11:36:39.766Z,21.52
2019-02-06T11:38:41.425Z,21.72
2019-02-06T11:40:43.025Z,21.77
2019-02-06T11:42:44.677Z,21.79
2019-02-06T11:44:46.355Z,21.61
2019-02-06T11:46:47.948Z,21.66
2019-02-06T11:48:49.638Z,21.61
2019-02-06T11:50:51.853Z,21.55
2019-02-06T11:52:53.453Z,21.46
2019-02-06T11:54:55.054Z,21.34
2019-02-06T11:56:56.659Z,21.39
2019-02-06T11:58:58.288Z,21.35
2019-02-06T12:01:00.403Z,21.34
2019-02-06T12:03:02.024Z,21.31
2019-02-06T12:05:03.648Z,21.29
2019-02-06T12:07:05.270Z,21.28
2019-02-06T12:09:06.869Z,21.27
2019-02-06T12:11:08.491Z,21.27
2019-02-06T12:13:10.103Z,21.30
2019-02-06T12:15:11.746Z,21.39
2019-02-06T12:17:13.407Z,21.30
2019-02-06T12:19:15.012Z,21.20
2019-02-06T12:21:18.072Z,21.06
2019-02-06T12:23:18.321Z,20.84
2019-02-06T12:25:19.989Z,20.74
2019-02-06T12:27:21.598Z,20.79
2019-02-06T12:29:23.202Z,20.86
2019-02-06T12:31:24.806Z,20.91
2019-02-06T12:33:26.491Z,20.90
2019-02-06T12:35:28.094Z,20.90
2019-02-06T12:37:29.781Z,20.89
2019-02-06T12:39:31.386Z,20.88
2019-02-06T12:41:33.047Z,20.88
2019-02-06T12:43:34.676Z,20.87
2019-02-06T12:45:36.293Z,20.86
2019-02-06T12:47:37.898Z,20.84
2019-02-06T12:49:39.541Z,20.84
2019-02-06T12:51:41.217Z,20.84
2019-02-06T12:53:42.828Z,20.84
2019-02-06T12:55:44.480Z,20.82
2019-02-06T12:57:46.128Z,20.83
2019-02-06T12:59:47.734Z,20.83
2019-02-06T13:01:49.356Z,20.81
2019-02-06T13:03:50.939Z,20.80
2019-02-06T13:05:52.617Z,20.79
2019-02-06T13:07:54.217Z,20.79
2019-02-06T13:09:55.822Z,20.79
2019-02-06T13:11:57.431Z,20.77
2019-02-06T13:13:59.076Z,20.75
2019-02-06T13:16:00.722Z,20.74
2019-02-06T13:18:02.348Z,20.73
2019-02-06T13:20:03.948Z,20.73
2019-02-06T13:22:05.567Z,20.71
2019-02-06T13:24:07.171Z,20.71
2019-02-06T13:26:08.801Z,20.70
2019-02-06T13:28:10.427Z,20.68
2019-02-06T13:30:12.091Z,20.67
2019-02-06T13:32:13.690Z,20.62
2019-02-06T13:34:17.424Z,20.64
2019-02-06T13:36:19.229Z,20.53
2019-02-06T13:38:23.067Z,20.63
2019-02-06T13:40:22.533Z,20.62
2019-02-06T13:42:24.134Z,20.61
2019-02-06T13:44:25.744Z,20.60
2019-02-06T13:46:27.362Z,20.57
2019-02-06T13:48:29.006Z,20.57
2019-02-06T13:50:30.637Z,20.57
2019-02-06T13:52:33.109Z,20.54
2019-02-06T13:54:35.002Z,20.50
2019-02-06T13:56:36.610Z,20.46
2019-02-06T13:58:38.228Z,20.41
2019-02-06T14:00:39.902Z,20.36
2019-02-06T14:02:41.677Z,20.32
2019-02-06T14:04:43.315Z,20.26
2019-02-06T14:06:44.909Z,20.23
2019-02-06T14:08:46.518Z,20.14
2019-02-06T14:10:59.904Z,20.25
2019-02-06T14:12:49.801Z,20.27
2019-02-06T14:14:51.453Z,20.26
2019-02-06T14:16:53.064Z,20.27
2019-02-06T14:18:54.661Z,20.31
2019-02-06T14:20:56.317Z,20.34
2019-02-06T14:22:57.980Z,20.34
2019-02-06T14:24:59.590Z,20.36
2019-02-06T14:27:01.180Z,20.37
2019-02-06T14:29:02.772Z,20.37
2019-02-06T14:31:04.415Z,20.36
2019-02-06T14:33:06.016Z,20.38
2019-02-06T14:35:07.673Z,20.36
2019-02-06T14:37:09.281Z,20.38
2019-02-06T14:39:10.951Z,20.29
2019-02-06T14:41:12.706Z,20.38
2019-02-06T14:43:14.438Z,20.30
2019-02-06T14:45:16.085Z,20.38
2019-02-06T14:47:17.768Z,20.19
2019-02-06T14:49:20.165Z,20.38
2019-02-06T14:51:21.831Z,20.38
2019-02-06T14:53:23.634Z,20.36
2019-02-06T14:55:25.276Z,20.36
2019-02-06T14:57:27.091Z,20.36
2019-02-06T14:59:28.715Z,20.38
2019-02-06T15:01:31.810Z,20.38
2019-02-06T15:03:32.206Z,20.38
2019-02-06T15:05:34.166Z,20.34
2019-02-06T15:07:36.504Z,20.35
2019-02-06T15:09:38.296Z,20.33
2019-02-06T15:11:40.473Z,20.23
2019-02-06T15:13:42.753Z,20.33
2019-02-06T15:15:44.502Z,20.34
2019-02-06T15:17:46.156Z,20.36
2019-02-06T15:19:47.835Z,20.35
2019-02-06T15:21:49.484Z,20.35
2019-02-06T15:23:51.139Z,20.34
2019-02-06T15:25:53.181Z,20.35
2019-02-06T15:27:54.815Z,20.36
2019-02-06T15:29:56.450Z,20.35
2019-02-06T15:31:58.155Z,20.35
2019-02-06T15:34:00.185Z,20.35
2019-02-06T15:36:01.960Z,20.24
2019-02-06T15:38:03.628Z,20.35
2019-02-06T15:40:05.275Z,20.34
2019-02-06T15:42:06.919Z,20.34
2019-02-06T15:44:08.595Z,20.34
2019-02-06T15:46:10.957Z,20.35
2019-02-06T15:48:12.596Z,20.34
2019-02-06T15:50:14.235Z,20.22
2019-02-06T15:52:15.894Z,20.34
2019-02-06T15:54:17.742Z,20.32
2019-02-06T15:56:19.394Z,20.33
2019-02-06T15:58:21.526Z,20.33
2019-02-06T16:00:23.250Z,20.33
2019-02-06T16:02:24.941Z,20.33
2019-02-06T16:04:30.127Z,20.31
2019-02-06T16:06:31.877Z,20.34
2019-02-06T16:08:33.523Z,20.33
2019-02-06T16:10:35.222Z,20.32
2019-02-06T16:12:37.002Z,20.33
2019-02-06T16:14:38.649Z,20.33
2019-02-06T16:16:40.455Z,20.32
2019-02-06T16:18:42.158Z,20.32
2019-02-06T16:20:43.983Z,20.32
2019-02-06T16:22:45.785Z,20.31
2019-02-06T16:24:47.673Z,20.30
2019-02-06T16:26:49.890Z,20.31
2019-02-06T16:28:51.604Z,20.29
2019-02-06T16:30:53.294Z,20.16
2019-02-06T16:32:54.972Z,20.29
2019-02-06T16:34:56.650Z,20.28
2019-02-06T16:36:58.299Z,20.27
2019-02-06T16:39:00.681Z,20.27
2019-02-06T16:41:02.364Z,20.25
2019-02-06T16:43:04.280Z,20.27
2019-02-06T16:45:06.155Z,20.26
2019-02-06T16:47:07.810Z,20.26
2019-02-06T16:49:09.452Z,20.24
2019-02-06T16:51:11.136Z,20.24
2019-02-06T16:53:12.939Z,20.24
2019-02-06T16:55:14.587Z,20.24
2019-02-06T16:57:16.498Z,20.24
2019-02-06T16:59:18.371Z,20.24
2019-02-06T17:01:20.036Z,20.24
2019-02-06T17:03:21.691Z,20.25
2019-02-06T17:05:30.958Z,20.25
2019-02-06T17:07:25.271Z,20.26
2019-02-06T17:09:27.047Z,20.26
2019-02-06T17:11:28.787Z,20.26
2019-02-06T17:13:31.024Z,20.23
2019-02-06T17:15:33.062Z,20.23
2019-02-06T17:17:34.747Z,20.20
2019-02-06T17:19:36.543Z,20.23
2019-02-06T17:21:38.250Z,20.22
2019-02-06T17:23:40.368Z,20.24
2019-02-06T17:25:42.023Z,20.24
2019-02-06T17:27:43.708Z,20.14
2019-02-06T17:29:45.385Z,20.25
2019-02-06T17:31:47.305Z,20.26
2019-02-06T17:33:49.104Z,20.28
2019-02-06T17:35:50.856Z,20.25
2019-02-06T17:37:52.846Z,20.25
2019-02-06T17:39:54.614Z,20.25
2019-02-06T17:41:56.888Z,20.23
2019-02-06T17:43:58.531Z,20.25
2019-02-06T17:46:00.218Z,20.25
2019-02-06T17:48:01.900Z,20.25
2019-02-06T17:50:04.225Z,20.26
2019-02-06T17:52:05.886Z,20.04
2019-02-06T17:54:08.280Z,20.26
2019-02-06T17:56:10.076Z,20.26
2019-02-06T17:58:11.781Z,20.25
2019-02-06T18:00:13.441Z,20.24
2019-02-06T18:02:15.179Z,20.24
2019-02-06T18:04:16.843Z,20.22
2019-02-06T18:06:18.525Z,20.22
2019-02-06T18:08:20.198Z,20.22
2019-02-06T18:10:21.874Z,20.22
2019-02-06T18:12:26.595Z,20.22
2019-02-06T18:14:25.266Z,20.23
2019-02-06T18:16:26.937Z,20.21
2019-02-06T18:18:28.671Z,20.18
2019-02-06T18:20:30.908Z,20.18
2019-02-06T18:22:32.612Z,20.22
2019-02-06T18:24:34.457Z,20.20
2019-02-06T18:26:36.288Z,20.18
2019-02-06T18:28:38.028Z,20.05
2019-02-06T18:30:40.358Z,20.11
2019-02-06T18:32:42.031Z,20.07
2019-02-06T18:34:43.679Z,20.01
2019-02-06T18:36:45.339Z,19.95
2019-02-06T18:38:47.165Z,19.92
2019-02-06T18:40:49.645Z,19.89
2019-02-06T18:42:51.418Z,19.88
2019-02-06T18:44:53.083Z,19.91
2019-02-06T18:46:54.749Z,19.95
2019-02-06T18:48:56.430Z,19.93
2019-02-06T18:50:58.832Z,19.99
2019-02-06T18:53:00.555Z,20.00
2019-02-06T18:55:02.287Z,20.03
2019-02-06T18:57:03.988Z,20.03
2019-02-06T18:59:05.630Z,20.03
2019-02-06T19:01:07.309Z,20.05
2019-02-06T19:03:09.045Z,20.08
2019-02-06T19:05:10.742Z,20.09
2019-02-06T19:07:12.427Z,20.13
2019-02-06T19:09:14.096Z,20.14
2019-02-06T19:11:15.761Z,20.03
2019-02-06T19:13:17.433Z,20.16
2019-02-06T19:15:20.936Z,20.19
2019-02-06T19:17:22.944Z,20.18
2019-02-06T19:19:25.698Z,20.19
2019-02-06T19:21:26.398Z,20.20
2019-02-06T19:23:28.278Z,20.20
2019-02-06T19:25:29.988Z,20.20
2019-02-06T19:27:32.240Z,20.20
2019-02-06T19:29:34.018Z,20.19
2019-02-06T19:31:35.681Z,19.88
2019-02-06T19:33:37.400Z,20.18
2019-02-06T19:35:39.217Z,20.18
2019-02-06T19:37:41.528Z,20.17
2019-02-06T19:39:43.409Z,20.16
2019-02-06T19:41:45.125Z,20.16
2019-02-06T19:43:46.963Z,20.16
2019-02-06T19:45:48.636Z,20.16
2019-02-06T19:47:51.071Z,20.16
2019-02-06T19:49:53.683Z,20.16
2019-02-06T19:51:55.340Z,20.16
2019-02-06T19:53:57.100Z,20.15
2019-02-06T19:55:59.202Z,20.16
2019-02-06T19:58:00.936Z,20.15
2019-02-06T20:00:02.590Z,20.17
2019-02-06T20:02:04.381Z,20.15
2019-02-06T20:04:06.670Z,20.06
2019-02-06T20:06:08.530Z,20.15
2019-02-06T20:08:14.040Z,20.15
2019-02-06T20:10:13.224Z,20.13
2019-02-06T20:12:14.963Z,20.14
2019-02-06T20:14:16.985Z,20.14
2019-02-06T20:16:18.692Z,20.14
2019-02-06T20:18:20.352Z,20.14
2019-02-06T20:20:24.542Z,20.15
2019-02-06T20:22:23.789Z,20.13
2019-02-06T20:24:25.441Z,20.14
2019-02-06T20:26:27.232Z,20.14
2019-02-06T20:28:28.931Z,20.13
2019-02-06T20:30:30.682Z,20.13
2019-02-06T20:32:32.406Z,20.13
2019-02-06T20:34:34.067Z,20.13
2019-02-06T20:36:35.783Z,20.12
2019-02-06T20:38:37.492Z,20.14
2019-02-06T20:40:39.667Z,20.13
2019-02-06T20:42:41.310Z,20.15
2019-02-06T20:44:42.995Z,20.15
2019-02-06T20:46:44.699Z,20.16
2019-02-06T20:48:46.464Z,20.16
2019-02-06T20:50:48.120Z,20.16
2019-02-06T20:52:49.767Z,20.18
2019-02-06T20:54:52.105Z,20.16
2019-02-06T20:56:53.796Z,20.18
2019-02-06T20:58:55.550Z,20.19
2019-02-06T21:00:57.325Z,20.18
2019-02-06T21:02:59.031Z,20.18
2019-02-06T21:05:00.739Z,20.18
2019-02-06T21:07:02.409Z,20.18
2019-02-06T21:09:04.065Z,20.16
2019-02-06T21:11:05.707Z,20.13
2019-02-06T21:13:07.579Z,20.10
2019-02-06T21:15:09.244Z,20.07
2019-02-06T21:17:10.900Z,20.02
2019-02-06T21:19:12.593Z,20.03
2019-02-06T21:21:14.246Z,19.99
2019-02-06T21:23:16.504Z,19.99
2019-02-06T21:25:18.156Z,19.98
2019-02-06T21:27:19.904Z,19.94
2019-02-06T21:29:21.804Z,19.95
2019-02-06T21:31:23.562Z,19.72
2019-02-06T21:33:25.338Z,19.93
2019-02-06T21:35:26.998Z,19.90
2019-02-06T21:37:29.355Z,19.91
2019-02-06T21:39:31.030Z,19.91
2019-02-06T21:41:33.365Z,19.90
2019-02-06T21:43:43.922Z,19.90
2019-02-06T21:45:36.749Z,19.89
2019-02-06T21:47:38.489Z,19.87
2019-02-06T21:49:40.127Z,19.85
2019-02-06T21:51:41.809Z,19.85
2019-02-06T21:53:43.730Z,19.84
2019-02-06T21:55:45.594Z,19.67
2019-02-06T21:57:47.247Z,19.64
2019-02-06T21:59:48.896Z,19.79
2019-02-06T22:01:50.622Z,19.85
2019-02-06T22:03:52.629Z,20.36
2019-02-06T22:05:54.263Z,20.95
2019-02-06T22:07:55.946Z,21.35
2019-02-06T22:09:57.888Z,21.68
2019-02-06T22:11:59.599Z,21.62
2019-02-06T22:14:01.237Z,21.84
2019-02-06T22:16:03.050Z,21.88
2019-02-06T22:18:04.709Z,22.03
2019-02-06T22:20:06.375Z,22.12
2019-02-06T22:22:08.079Z,22.26
2019-02-06T22:24:09.954Z,22.29
2019-02-06T22:26:11.607Z,22.31
2019-02-06T22:28:13.268Z,22.23
2019-02-06T22:30:14.910Z,22.23
2019-02-06T22:32:16.577Z,22.38
2019-02-06T22:34:18.323Z,22.53
2019-02-06T22:36:19.990Z,22.51
2019-02-06T22:38:21.708Z,22.44
2019-02-06T22:40:23.354Z,22.46
2019-02-06T22:42:25.031Z,22.45
2019-02-06T22:44:26.684Z,22.51
2019-02-06T22:46:28.429Z,22.56
2019-02-06T22:48:30.084Z,22.62
2019-02-06T22:50:31.759Z,22.83
2019-02-06T22:52:33.416Z,22.88
2019-02-06T22:54:35.076Z,22.79
2019-02-06T22:56:36.777Z,22.87
2019-02-06T22:58:38.428Z,22.79
2019-02-06T23:00:45.710Z,22.65
2019-02-06T23:02:47.385Z,22.52
2019-02-06T23:04:49.161Z,23.13
2019-02-06T23:06:50.827Z,22.95
2019-02-06T23:08:52.507Z,23.02
2019-02-06T23:10:54.150Z,22.89
2019-02-06T23:12:55.862Z,22.71
2019-02-06T23:14:57.511Z,22.86
2019-02-06T23:16:59.207Z,22.66
2019-02-06T23:19:00.897Z,22.51
2019-02-06T23:21:02.548Z,22.68
2019-02-06T23:23:04.206Z,22.50
2019-02-06T23:25:06.596Z,22.39
2019-02-06T23:27:08.244Z,22.37
2019-02-06T23:29:09.894Z,22.18
2019-02-06T23:31:11.638Z,22.57
2019-02-06T23:33:13.314Z,22.45
2019-02-06T23:35:15.703Z,22.39
2019-02-06T23:37:17.379Z,22.33
2019-02-06T23:39:19.032Z,22.36
2019-02-06T23:41:20.828Z,22.32
2019-02-06T23:43:22.509Z,22.31
2019-02-06T23:45:24.173Z,22.30
2019-02-06T23:47:25.820Z,22.48
2019-02-06T23:49:27.504Z,22.41
2019-02-06T23:51:29.158Z,22.36
2019-02-06T23:53:30.795Z,22.03
2019-02-06T23:55:32.546Z,21.74
2019-02-06T23:57:34.321Z,21.94
2019-02-06T23:59:35.965Z,22.06
